Afton, Michigan
Current Conditions -  °F | °C
As of 6:57 AM on Saturday 25 Oct 2014 (Local Time) from KSLH Reporting Station
Broken Clouds Broken Clouds  
Wind Chill: 12°   Ceiling: 1200
Heat Index: 12°   Visibility: 7mi
Dew Point: 11°   Wind: 16mph
Humidity: 90%   Direction: 250°WSW
Pressure: 29.66"   Gusts: 24mph
Location:  45.36°N, 84.47°W
Report Text: KSLH 251057Z AUTO 25014G21KT 7SM BKN012 BKN100 12/10 A2966 RMK AO2 T01220106
Loading
Personal Weather Stations






























Interactive Weather Map
Tropical Storm Tracking
New forecast layout! Learn more

10-Day Weather Forecast

Advertisements
Track Severe Weather on mobile